Time;durP1;ratioP1;P1;durP2;ratioP2;P2;SDS_P1;SDS_P2;PMS_P1;PMS_P2;Temp;Humidity;BMP_temperature;BMP_pressure;BME280_temperature;BME280_humidity;BME280_pressure;Samples;Min_cycle;Max_cycle;Signal;HPM_P1;HPM_P2
2023/08/10 00:00:17;;;;;;;5.97;3.63;;;14.90;81.00;;;;;;4967485;28;20047;-75
2023/08/10 00:02:44;;;;;;;7.88;4.05;;;14.90;81.20;;;;;;4962707;28;20361;-74
2023/08/10 00:05:10;;;;;;;7.45;4.43;;;14.80;81.30;;;;;;4963690;28;20153;-74
2023/08/10 00:07:36;;;;;;;9.35;3.92;;;14.90;81.40;;;;;;4960423;28;20070;-75
2023/08/10 00:10:04;;;;;;;8.35;4.50;;;14.80;81.30;;;;;;4966406;28;20047;-76
2023/08/10 00:12:30;;;;;;;7.25;4.20;;;14.80;81.20;;;;;;4964201;28;20077;-74
2023/08/10 00:14:56;;;;;;;7.93;4.10;;;14.80;81.20;;;;;;4964950;28;20134;-77
2023/08/10 00:17:22;;;;;;;7.47;3.60;;;14.70;81.30;;;;;;4961673;28;20432;-75
2023/08/10 00:19:49;;;;;;;8.32;4.10;;;14.70;81.30;;;;;;4963440;28;20538;-73
2023/08/10 00:22:15;;;;;;;8.57;4.53;;;14.60;81.50;;;;;;4966789;28;20468;-74
2023/08/10 00:24:41;;;;;;;8.07;3.90;;;14.60;81.60;;;;;;4961857;28;20035;-74
2023/08/10 00:27:06;;;;;;;8.52;4.22;;;14.60;81.90;;;;;;4948432;28;20115;-73
2023/08/10 00:29:33;;;;;;;6.97;4.00;;;14.60;82.00;;;;;;4962469;28;20093;-74
2023/08/10 00:31:59;;;;;;;8.70;4.32;;;14.50;82.20;;;;;;4967842;28;20019;-75
2023/08/10 00:34:24;;;;;;;6.57;3.70;;;14.60;82.10;;;;;;4961672;28;20039;-75
2023/08/10 00:36:50;;;;;;;6.25;3.70;;;14.60;82.10;;;;;;4967694;28;20031;-74
2023/08/10 00:39:17;;;;;;;9.10;4.20;;;14.50;82.20;;;;;;4964770;28;20038;-75
2023/08/10 00:41:43;;;;;;;9.38;4.15;;;14.50;82.30;;;;;;4957785;28;20043;-74
2023/08/10 00:44:09;;;;;;;6.63;4.03;;;14.50;82.40;;;;;;4966002;28;20050;-74
2023/08/10 00:46:35;;;;;;;10.38;4.45;;;14.50;82.30;;;;;;4959866;28;20058;-75
2023/08/10 00:49:01;;;;;;;7.85;4.13;;;14.40;82.40;;;;;;4963375;28;20035;-74
2023/08/10 00:51:27;;;;;;;8.07;3.72;;;14.40;82.50;;;;;;4949545;28;20081;-74
2023/08/10 00:53:53;;;;;;;6.95;3.97;;;14.30;82.70;;;;;;4957940;28;20471;-74
2023/08/10 00:56:19;;;;;;;7.20;4.25;;;14.30;82.80;;;;;;4968591;28;20428;-75
2023/08/10 00:58:45;;;;;;;7.57;4.30;;;14.30;82.80;;;;;;4976297;28;20486;-76
2023/08/10 01:01:11;;;;;;;8.38;4.22;;;14.30;82.90;;;;;;4971555;28;20120;-76
2023/08/10 01:03:36;;;;;;;8.63;4.53;;;14.20;82.90;;;;;;4962357;28;20042;-75
2023/08/10 01:06:18;;;;;;;7.55;4.53;;;14.20;83.00;;;;;;4967173;28;20031;-75
2023/08/10 01:08:49;;;;;;;7.38;4.30;;;14.10;83.20;;;;;;4965265;28;20025;-74
2023/08/10 01:11:35;;;;;;;8.45;5.13;;;14.10;83.20;;;;;;4961916;28;20508;-75
2023/08/10 01:14:35;;;;;;;7.80;4.53;;;14.20;83.20;;;;;;4960844;28;20169;-75
2023/08/10 01:17:02;;;;;;;8.30;4.15;;;14.20;83.10;;;;;;4960555;28;20372;-73
2023/08/10 01:19:41;;;;;;;8.77;3.60;;;14.20;83.00;;;;;;4963130;28;20070;-75
2023/08/10 01:22:13;;;;;;;8.20;4.78;;;14.10;83.20;;;;;;4983316;28;20022;-75
2023/08/10 01:24:43;;;;;;;8.15;4.05;;;14.10;83.30;;;;;;4982017;28;20039;-74
2023/08/10 01:27:11;;;;;;;7.45;5.05;;;14.10;83.40;;;;;;4976542;28;20050;-74
2023/08/10 01:29:37;;;;;;;8.10;5.00;;;14.00;83.60;;;;;;4965070;28;20045;-75
2023/08/10 01:32:03;;;;;;;8.23;4.95;;;14.00;83.90;;;;;;4991936;28;20030;-73
2023/08/10 01:34:29;;;;;;;7.95;4.35;;;14.00;84.00;;;;;;4957731;28;20039;-75
2023/08/10 01:36:55;;;;;;;9.20;4.82;;;14.00;84.00;;;;;;4951590;28;20559;-74
2023/08/10 01:39:21;;;;;;;7.85;5.07;;;14.00;84.00;;;;;;4955374;28;20035;-76
2023/08/10 01:41:46;;;;;;;8.50;4.63;;;14.00;84.00;;;;;;4953057;28;20480;-75
2023/08/10 01:44:12;;;;;;;7.60;4.95;;;14.00;84.00;;;;;;4954295;28;20039;-74
2023/08/10 01:46:40;;;;;;;8.15;4.55;;;14.00;84.00;;;;;;4972938;28;21470;-74
2023/08/10 01:49:10;;;;;;;6.82;4.53;;;14.00;83.90;;;;;;4973422;28;20371;-76
2023/08/10 01:51:39;;;;;;;7.55;4.80;;;14.00;83.90;;;;;;4947225;28;20032;-76
2023/08/10 01:54:07;;;;;;;7.95;4.97;;;13.90;83.80;;;;;;4954766;28;20401;-75
2023/08/10 01:56:33;;;;;;;11.02;5.72;;;13.90;83.50;;;;;;4949245;28;20544;-75
2023/08/10 01:58:59;;;;;;;8.18;4.80;;;13.90;83.40;;;;;;4952481;28;20368;-73
2023/08/10 02:01:25;;;;;;;9.15;5.15;;;13.80;83.50;;;;;;4965624;28;20031;-75
2023/08/10 02:03:51;;;;;;;9.23;5.45;;;13.80;83.60;;;;;;4966175;28;20058;-74
2023/08/10 02:06:17;;;;;;;8.60;5.15;;;13.90;83.50;;;;;;4959137;28;20063;-74
2023/08/10 02:08:43;;;;;;;9.10;4.70;;;13.80;83.50;;;;;;4958349;28;20037;-75
2023/08/10 02:11:08;;;;;;;7.95;5.10;;;13.80;83.50;;;;;;4955227;28;20062;-75
2023/08/10 02:13:34;;;;;;;9.07;5.05;;;13.80;83.60;;;;;;4959340;28;20046;-75
2023/08/10 02:16:00;;;;;;;9.43;5.25;;;13.70;83.70;;;;;;4957877;28;20029;-77
2023/08/10 02:18:26;;;;;;;8.10;4.47;;;13.70;83.80;;;;;;4957918;28;20123;-75
2023/08/10 02:20:51;;;;;;;7.47;4.90;;;13.70;83.90;;;;;;4977030;28;20058;-75
2023/08/10 02:23:17;;;;;;;9.10;4.40;;;13.70;84.00;;;;;;4969142;28;20027;-75
2023/08/10 02:25:43;;;;;;;8.90;5.32;;;13.70;84.20;;;;;;4974271;28;20035;-75
2023/08/10 02:28:09;;;;;;;7.75;4.88;;;13.70;84.20;;;;;;4979890;28;20030;-76
2023/08/10 02:30:34;;;;;;;7.00;4.43;;;13.70;84.20;;;;;;4972663;28;20466;-75
2023/08/10 02:33:00;;;;;;;8.18;4.68;;;13.60;84.30;;;;;;4977885;28;20026;-75
2023/08/10 02:35:26;;;;;;;11.18;5.30;;;13.60;84.40;;;;;;4962632;28;20035;-75
2023/08/10 02:37:51;;;;;;;7.72;4.90;;;13.60;84.50;;;;;;4963339;28;20047;-74
2023/08/10 02:40:17;;;;;;;9.00;5.75;;;13.60;84.60;;;;;;4961581;28;20487;-75
2023/08/10 02:42:43;;;;;;;8.20;4.47;;;13.60;84.60;;;;;;4990416;28;20062;-75
2023/08/10 02:45:09;;;;;;;8.07;4.70;;;13.60;84.60;;;;;;4963230;28;20045;-75
2023/08/10 02:47:35;;;;;;;7.85;4.60;;;13.60;84.70;;;;;;4966645;28;20035;-75
2023/08/10 02:50:01;;;;;;;9.07;5.15;;;13.60;84.70;;;;;;4959572;28;20049;-75
2023/08/10 02:52:27;;;;;;;9.95;5.38;;;13.60;84.70;;;;;;4950979;28;20268;-75
2023/08/10 02:54:53;;;;;;;8.10;5.00;;;13.60;84.70;;;;;;4961368;28;20447;-75
2023/08/10 02:57:18;;;;;;;9.88;4.88;;;13.50;84.70;;;;;;4975507;28;20040;-76
2023/08/10 02:59:44;;;;;;;7.00;4.55;;;13.50;84.90;;;;;;4967861;28;20047;-75
2023/08/10 03:02:10;;;;;;;9.93;5.40;;;13.50;84.90;;;;;;4971729;28;20032;-75
2023/08/10 03:04:35;;;;;;;7.47;4.60;;;13.50;84.90;;;;;;4956648;28;20508;-75
2023/08/10 03:07:01;;;;;;;7.65;5.25;;;13.50;84.90;;;;;;4945337;29;20027;-75
2023/08/10 03:09:27;;;;;;;8.48;5.22;;;13.40;84.90;;;;;;4946143;28;20665;-76
2023/08/10 03:11:53;;;;;;;8.27;4.65;;;13.40;85.00;;;;;;4946665;28;20039;-75
2023/08/10 03:14:19;;;;;;;9.07;5.30;;;13.40;85.00;;;;;;4948367;28;20039;-75
2023/08/10 03:16:44;;;;;;;10.70;5.88;;;13.30;85.00;;;;;;4941536;28;20111;-75
2023/08/10 03:19:10;;;;;;;8.27;5.38;;;13.30;85.10;;;;;;4943914;28;20118;-75
2023/08/10 03:21:36;;;;;;;10.10;5.45;;;13.30;85.10;;;;;;4944701;28;20045;-76
2023/08/10 03:24:02;;;;;;;8.38;5.40;;;13.30;85.10;;;;;;4944901;28;20050;-74
2023/08/10 03:26:27;;;;;;;9.77;5.07;;;13.30;85.20;;;;;;4945797;28;20037;-73
2023/08/10 03:28:53;;;;;;;8.65;5.35;;;13.30;85.20;;;;;;4947233;28;20031;-74
2023/08/10 03:31:23;;;;;;;7.93;5.35;;;13.30;85.10;;;;;;4941252;28;20885;-74
2023/08/10 03:33:48;;;;;;;7.97;5.43;;;13.30;85.20;;;;;;4941953;28;20031;-74
2023/08/10 03:36:15;;;;;;;8.70;5.38;;;13.20;85.20;;;;;;4946296;28;20035;-75
2023/08/10 03:38:41;;;;;;;10.35;5.97;;;13.20;85.20;;;;;;4944376;28;20674;-74
2023/08/10 03:41:06;;;;;;;8.30;5.72;;;13.20;85.20;;;;;;4947832;29;20143;-74
2023/08/10 03:43:32;;;;;;;8.25;5.07;;;13.20;85.20;;;;;;4949435;28;20479;-75
2023/08/10 03:45:57;;;;;;;7.90;5.78;;;13.20;85.30;;;;;;4948909;28;20527;-74
2023/08/10 03:48:23;;;;;;;9.00;5.70;;;13.20;85.30;;;;;;4949177;28;20027;-76
2023/08/10 03:50:49;;;;;;;9.68;5.63;;;13.20;85.30;;;;;;4943492;28;20070;-74
2023/08/10 03:53:15;;;;;;;9.55;5.68;;;13.10;85.30;;;;;;4942249;28;20451;-75
2023/08/10 03:55:41;;;;;;;11.50;5.97;;;13.10;85.30;;;;;;4937570;28;20105;-74
2023/08/10 03:58:06;;;;;;;9.02;6.00;;;13.10;85.40;;;;;;4946964;28;20033;-74
2023/08/10 04:00:32;;;;;;;8.07;5.63;;;13.10;85.40;;;;;;4944060;28;20045;-76
2023/08/10 04:02:58;;;;;;;9.63;5.75;;;13.10;85.40;;;;;;4948906;29;20023;-74
2023/08/10 04:05:23;;;;;;;8.50;6.03;;;13.10;85.40;;;;;;4946136;28;21343;-74
2023/08/10 04:07:49;;;;;;;8.85;5.85;;;13.10;85.50;;;;;;4945600;28;20042;-75
2023/08/10 04:10:15;;;;;;;8.27;5.22;;;13.10;85.50;;;;;;4944660;28;20047;-75
2023/08/10 04:12:40;;;;;;;10.35;5.22;;;13.10;85.50;;;;;;4942343;29;20503;-75
2023/08/10 04:15:07;;;;;;;10.85;5.80;;;13.10;85.40;;;;;;4946647;28;20579;-74
2023/08/10 04:17:32;;;;;;;9.77;6.10;;;13.10;85.40;;;;;;4944545;28;20038;-75
2023/08/10 04:19:58;;;;;;;10.52;5.50;;;13.10;85.30;;;;;;4942824;28;21501;-73
2023/08/10 04:22:25;;;;;;;11.15;5.60;;;13.10;85.40;;;;;;4947150;28;20480;-74
2023/08/10 04:24:51;;;;;;;9.25;5.30;;;13.00;85.30;;;;;;4946036;28;20035;-74
2023/08/10 04:27:18;;;;;;;12.02;6.75;;;13.00;85.50;;;;;;4941258;28;20032;-74
2023/08/10 04:29:44;;;;;;;10.65;6.05;;;13.00;85.30;;;;;;4960150;28;20134;-74
2023/08/10 04:32:11;;;;;;;9.40;6.15;;;12.90;85.60;;;;;;4966649;28;20035;-74
2023/08/10 04:34:37;;;;;;;11.07;6.30;;;13.00;85.80;;;;;;4971481;28;20035;-74
2023/08/10 04:37:02;;;;;;;10.68;5.88;;;13.00;85.80;;;;;;4968120;28;20861;-75
2023/08/10 04:39:28;;;;;;;10.55;5.90;;;13.00;85.70;;;;;;4962937;28;20043;-74
2023/08/10 04:41:54;;;;;;;11.80;6.72;;;13.10;85.70;;;;;;4965922;28;20078;-77
2023/08/10 04:44:20;;;;;;;8.90;5.60;;;13.10;85.60;;;;;;4961654;28;20460;-76
2023/08/10 04:46:45;;;;;;;8.27;5.45;;;13.10;85.50;;;;;;4961736;28;20019;-75
2023/08/10 04:49:11;;;;;;;10.52;5.75;;;13.10;85.60;;;;;;4972516;28;20045;-75
2023/08/10 04:51:37;;;;;;;9.15;5.63;;;13.10;85.50;;;;;;4963610;28;20039;-75
2023/08/10 04:54:02;;;;;;;8.75;5.40;;;13.10;85.30;;;;;;4963203;28;20377;-76
2023/08/10 04:56:28;;;;;;;10.90;5.82;;;13.10;85.10;;;;;;4959891;28;20030;-76
2023/08/10 04:58:54;;;;;;;10.00;5.82;;;13.10;85.20;;;;;;4962546;28;20066;-75
2023/08/10 05:01:19;;;;;;;9.32;5.10;;;13.10;85.10;;;;;;4964708;28;20491;-75
2023/08/10 05:03:46;;;;;;;9.95;5.63;;;13.10;85.30;;;;;;4965342;28;20034;-75
2023/08/10 05:06:12;;;;;;;8.82;5.57;;;13.20;85.30;;;;;;4969213;28;20027;-74
2023/08/10 05:08:38;;;;;;;9.68;5.10;;;13.20;85.30;;;;;;4968751;28;20376;-74
2023/08/10 05:11:04;;;;;;;11.00;5.20;;;13.30;85.30;;;;;;4966942;28;20170;-75
2023/08/10 05:13:30;;;;;;;9.63;5.70;;;13.40;85.20;;;;;;4966615;28;20137;-76
2023/08/10 05:15:55;;;;;;;8.88;5.22;;;13.50;85.10;;;;;;4965676;28;20065;-74
2023/08/10 05:18:22;;;;;;;10.73;5.13;;;13.50;84.90;;;;;;4962851;28;20026;-74
2023/08/10 05:20:49;;;;;;;9.25;4.78;;;13.60;84.80;;;;;;4965774;28;20051;-75
2023/08/10 05:23:15;;;;;;;10.55;5.30;;;13.60;84.80;;;;;;4966948;28;20027;-76
2023/08/10 05:25:41;;;;;;;8.88;5.40;;;13.60;84.70;;;;;;4968025;28;20136;-75
2023/08/10 05:28:07;;;;;;;9.18;6.05;;;13.80;84.50;;;;;;4965608;28;20494;-73
2023/08/10 05:30:33;;;;;;;8.13;5.07;;;13.80;84.40;;;;;;4965312;28;20403;-76
2023/08/10 05:32:59;;;;;;;10.15;5.30;;;13.80;84.30;;;;;;4968252;28;20023;-76
2023/08/10 05:35:25;;;;;;;7.93;5.28;;;13.90;84.20;;;;;;4967703;28;20103;-75
2023/08/10 05:37:51;;;;;;;6.97;4.85;;;13.90;84.10;;;;;;4969638;28;20034;-75
2023/08/10 05:40:16;;;;;;;9.15;4.82;;;14.00;84.10;;;;;;4961759;28;20480;-76
2023/08/10 05:42:42;;;;;;;8.55;5.03;;;14.00;84.20;;;;;;4954870;28;20054;-75
2023/08/10 05:45:09;;;;;;;8.43;5.78;;;14.10;84.10;;;;;;4970952;28;20034;-75
2023/08/10 05:47:36;;;;;;;12.40;6.05;;;14.20;84.00;;;;;;4970457;28;20035;-75
2023/08/10 05:50:03;;;;;;;10.30;6.35;;;14.20;83.70;;;;;;4968260;28;20460;-75
2023/08/10 05:52:29;;;;;;;7.55;4.53;;;14.30;83.60;;;;;;4966098;28;20034;-75
2023/08/10 05:54:55;;;;;;;7.50;5.07;;;14.30;83.70;;;;;;4964750;28;20369;-75
2023/08/10 05:57:22;;;;;;;8.57;4.70;;;14.50;83.60;;;;;;4968598;28;20035;-75
2023/08/10 05:59:48;;;;;;;7.07;4.78;;;14.60;83.20;;;;;;4968559;28;20133;-75
2023/08/10 06:02:14;;;;;;;8.27;4.85;;;14.60;83.00;;;;;;4967452;28;20117;-74
2023/08/10 06:04:43;;;;;;;8.63;5.38;;;14.80;82.80;;;;;;4965599;28;20169;-74
2023/08/10 06:07:09;;;;;;;7.30;4.80;;;14.90;82.40;;;;;;4969606;28;20030;-75
2023/08/10 06:09:35;;;;;;;11.73;4.88;;;15.10;81.70;;;;;;4967694;28;20039;-75
2023/08/10 06:12:01;;;;;;;9.93;5.43;;;15.20;81.20;;;;;;4965876;28;20454;-74
2023/08/10 06:14:27;;;;;;;7.75;4.68;;;15.40;80.70;;;;;;4969239;28;20038;-76
2023/08/10 06:16:53;;;;;;;7.63;4.97;;;15.60;80.00;;;;;;4970932;28;20054;-75
2023/08/10 06:19:19;;;;;;;6.97;4.28;;;15.70;79.70;;;;;;4990879;28;20046;-74
2023/08/10 06:21:44;;;;;;;11.07;5.10;;;15.90;79.00;;;;;;4979531;28;20046;-75
2023/08/10 06:24:10;;;;;;;9.60;4.53;;;16.00;77.40;;;;;;4975507;28;20038;-73
2023/08/10 06:26:36;;;;;;;10.05;4.60;;;16.10;76.90;;;;;;4967175;28;20027;-72
2023/08/10 06:29:03;;;;;;;7.65;4.50;;;16.30;76.30;;;;;;4967848;28;20400;-72
2023/08/10 06:31:29;;;;;;;9.68;4.90;;;16.40;75.20;;;;;;4963863;28;20116;-72
2023/08/10 06:33:55;;;;;;;10.13;4.55;;;16.50;75.40;;;;;;4968404;28;20402;-73
2023/08/10 06:36:21;;;;;;;12.85;4.93;;;16.60;74.10;;;;;;4967908;28;20039;-73
2023/08/10 06:38:47;;;;;;;9.35;5.40;;;16.80;74.20;;;;;;4967944;28;20049;-73
2023/08/10 06:41:12;;;;;;;10.00;5.00;;;17.00;74.10;;;;;;4967378;28;20468;-74
2023/08/10 06:43:38;;;;;;;9.40;4.47;;;17.10;73.90;;;;;;4965929;28;20055;-74
2023/08/10 06:46:04;;;;;;;9.23;4.93;;;17.20;73.20;;;;;;4967979;28;20082;-73
2023/08/10 06:48:30;;;;;;;11.63;5.78;;;17.40;72.40;;;;;;4962322;28;20381;-73
2023/08/10 06:50:57;;;;;;;10.85;5.07;;;17.60;72.10;;;;;;4965254;28;20039;-73
2023/08/10 06:53:23;;;;;;;10.60;4.65;;;17.70;71.80;;;;;;4970191;28;20483;-73
2023/08/10 06:55:50;;;;;;;8.75;4.85;;;17.80;71.00;;;;;;4965885;28;20043;-73
2023/08/10 06:58:16;;;;;;;10.48;4.68;;;18.00;71.20;;;;;;4968938;28;20041;-71
2023/08/10 07:00:42;;;;;;;9.32;4.60;;;18.10;69.10;;;;;;4965382;28;20039;-72
2023/08/10 07:03:08;;;;;;;10.40;4.57;;;18.20;69.90;;;;;;4966919;28;20054;-73
2023/08/10 07:05:38;;;;;;;11.10;4.20;;;18.40;69.00;;;;;;4964815;28;20134;-72
2023/08/10 07:08:04;;;;;;;8.52;4.05;;;18.60;67.80;;;;;;4966152;28;20168;-72
2023/08/10 07:10:29;;;;;;;9.80;4.40;;;18.70;65.80;;;;;;4967666;28;20046;-72
2023/08/10 07:12:55;;;;;;;7.30;3.85;;;18.80;65.50;;;;;;4970760;28;20045;-73
2023/08/10 07:15:21;;;;;;;8.15;3.40;;;19.00;64.50;;;;;;4973868;28;20043;-72
2023/08/10 07:17:47;;;;;;;8.45;4.25;;;19.10;64.70;;;;;;4971425;28;20133;-72
2023/08/10 07:20:13;;;;;;;10.63;4.82;;;19.30;64.30;;;;;;4968167;28;20069;-72
2023/08/10 07:22:41;;;;;;;10.55;4.03;;;19.40;62.80;;;;;;4989125;28;20490;-72
2023/08/10 07:25:07;;;;;;;7.75;3.58;;;19.50;63.40;;;;;;4982214;28;20062;-72
2023/08/10 07:27:33;;;;;;;8.25;3.70;;;19.60;62.70;;;;;;4973602;28;20499;-72
2023/08/10 07:29:59;;;;;;;9.18;3.85;;;19.70;62.60;;;;;;4956908;28;20097;-72
2023/08/10 07:32:26;;;;;;;7.70;3.72;;;19.70;61.10;;;;;;4945014;29;20024;-73
2023/08/10 07:34:52;;;;;;;7.75;3.40;;;19.80;59.70;;;;;;4946143;28;20039;-72
2023/08/10 07:37:18;;;;;;;6.53;3.30;;;20.00;59.10;;;;;;4941528;28;20039;-72
2023/08/10 07:39:43;;;;;;;7.10;3.47;;;20.10;58.50;;;;;;4944938;28;20126;-72
2023/08/10 07:42:09;;;;;;;8.20;3.85;;;20.30;59.10;;;;;;4945448;28;20074;-72
2023/08/10 07:44:35;;;;;;;6.90;3.40;;;20.50;58.70;;;;;;4941572;28;20039;-72
2023/08/10 07:47:00;;;;;;;6.75;3.40;;;20.60;58.50;;;;;;4948004;28;20110;-73
2023/08/10 07:49:27;;;;;;;7.05;2.72;;;20.60;55.70;;;;;;4946300;28;20043;-72
2023/08/10 07:51:53;;;;;;;7.85;3.08;;;20.70;54.70;;;;;;4951496;28;20058;-72
2023/08/10 07:54:19;;;;;;;7.65;2.78;;;20.90;55.40;;;;;;4951254;28;20429;-73
2023/08/10 07:56:45;;;;;;;6.60;2.80;;;21.10;53.90;;;;;;4949923;28;20034;-72
2023/08/10 07:59:12;;;;;;;5.47;2.30;;;21.20;53.20;;;;;;4945472;28;20062;-72
2023/08/10 08:01:38;;;;;;;4.88;1.88;;;21.30;52.50;;;;;;4943621;28;20500;-72
2023/08/10 08:04:04;;;;;;;7.13;2.65;;;21.30;51.10;;;;;;4946695;28;20035;-71
2023/08/10 08:06:30;;;;;;;4.68;2.10;;;21.50;51.40;;;;;;4945208;28;20038;-72
2023/08/10 08:08:55;;;;;;;5.10;1.95;;;21.50;51.50;;;;;;4946339;28;20039;-72
2023/08/10 08:11:21;;;;;;;5.78;2.08;;;21.60;52.00;;;;;;4944305;28;20035;-75
2023/08/10 08:13:47;;;;;;;6.75;2.05;;;21.70;51.50;;;;;;4938045;28;20082;-75
2023/08/10 08:16:13;;;;;;;5.15;2.03;;;21.90;51.20;;;;;;4955080;28;20023;-73
2023/08/10 08:18:53;;;;;;;5.28;2.00;;;22.00;49.60;;;;;;4947289;28;20038;-74
2023/08/10 08:21:28;;;;;;;3.92;1.83;;;22.00;47.50;;;;;;4944285;29;20066;-75
2023/08/10 08:23:54;;;;;;;4.45;1.50;;;22.10;46.50;;;;;;4945922;28;20032;-75
2023/08/10 08:26:23;;;;;;;4.65;1.70;;;22.20;45.10;;;;;;4952344;28;20031;-74
2023/08/10 08:28:50;;;;;;;6.40;2.45;;;22.30;46.10;;;;;;4950156;28;20108;-75
2023/08/10 08:31:16;;;;;;;4.63;1.95;;;22.40;46.60;;;;;;4979949;28;20031;-74
2023/08/10 08:33:42;;;;;;;3.63;1.77;;;22.50;48.00;;;;;;4956679;28;20062;-73
2023/08/10 08:36:08;;;;;;;4.53;1.95;;;22.60;46.90;;;;;;4972703;28;20037;-73
2023/08/10 08:38:35;;;;;;;4.45;1.95;;;22.80;47.40;;;;;;4971621;28;20059;-73
2023/08/10 08:41:06;;;;;;;4.60;1.67;;;23.00;48.10;;;;;;4994481;28;20395;-73
2023/08/10 08:43:33;;;;;;;6.07;1.70;;;23.00;44.20;;;;;;4970599;28;20050;-75
2023/08/10 08:45:59;;;;;;;6.93;2.00;;;23.20;44.00;;;;;;4966338;28;20110;-74
2023/08/10 08:48:29;;;;;;;4.03;1.75;;;23.10;42.40;;;;;;4969630;28;20121;-73
2023/08/10 08:50:57;;;;;;;3.03;1.80;;;23.20;43.80;;;;;;4970737;28;20133;-72
2023/08/10 08:53:23;;;;;;;4.43;1.77;;;23.30;43.90;;;;;;4972591;28;20169;-74
2023/08/10 08:55:49;;;;;;;2.70;1.50;;;23.50;44.10;;;;;;4957711;28;20109;-74
2023/08/10 08:58:16;;;;;;;4.32;2.13;;;23.60;42.50;;;;;;4948048;28;20365;-75
2023/08/10 09:00:52;;;;;;;2.95;1.60;;;23.80;42.60;;;;;;4947379;28;20514;-73
2023/08/10 09:03:22;;;;;;;4.47;1.70;;;23.80;40.20;;;;;;4952258;28;20419;-75
2023/08/10 09:05:48;;;;;;;3.00;1.60;;;23.70;40.10;;;;;;4973926;28;20182;-75
2023/08/10 09:08:15;;;;;;;4.65;1.70;;;23.70;38.80;;;;;;4969097;28;20081;-75
2023/08/10 09:10:43;;;;;;;4.30;1.85;;;23.70;39.30;;;;;;4952618;28;20277;-74
2023/08/10 09:13:17;;;;;;;3.78;1.58;;;23.80;38.40;;;;;;4976440;28;20133;-75
2023/08/10 09:15:43;;;;;;;3.58;1.55;;;24.00;39.10;;;;;;4965423;28;20046;-74
2023/08/10 09:18:09;;;;;;;5.57;1.65;;;24.10;39.30;;;;;;4975143;28;20019;-73
2023/08/10 09:20:34;;;;;;;4.90;1.85;;;24.10;37.90;;;;;;4977592;28;20457;-74
2023/08/10 09:23:01;;;;;;;3.30;1.80;;;24.10;39.00;;;;;;4971077;28;20697;-74
2023/08/10 09:25:36;;;;;;;4.07;1.50;;;24.30;39.30;;;;;;4970120;28;20082;-73
2023/08/10 09:28:07;;;;;;;4.72;1.85;;;24.30;39.00;;;;;;4975314;28;20023;-74
2023/08/10 09:30:33;;;;;;;4.65;1.80;;;24.50;40.10;;;;;;4978127;28;20464;-75
2023/08/10 09:32:59;;;;;;;5.32;1.90;;;24.60;40.40;;;;;;4983164;28;20105;-74
2023/08/10 09:35:28;;;;;;;3.60;1.75;;;24.60;38.90;;;;;;4977644;28;20115;-75
2023/08/10 09:38:00;;;;;;;3.45;1.52;;;24.70;40.10;;;;;;4967671;28;20109;-74
2023/08/10 09:40:26;;;;;;;3.45;1.70;;;24.90;41.40;;;;;;4966645;28;20431;-75
2023/08/10 09:42:53;;;;;;;5.63;2.05;;;25.10;39.70;;;;;;4974715;28;20354;-74
2023/08/10 09:45:19;;;;;;;3.72;1.90;;;25.00;40.60;;;;;;4960401;28;20061;-74
2023/08/10 09:47:45;;;;;;;3.10;1.88;;;25.10;40.50;;;;;;4946755;28;20043;-74
2023/08/10 09:50:15;;;;;;;4.47;1.80;;;25.20;39.90;;;;;;4951153;28;20135;-74
2023/08/10 09:52:42;;;;;;;3.55;1.90;;;25.40;40.50;;;;;;4948834;28;20030;-75
2023/08/10 09:55:09;;;;;;;4.32;1.92;;;25.30;41.70;;;;;;4951591;28;20106;-74
2023/08/10 09:57:44;;;;;;;6.15;1.98;;;25.50;42.70;;;;;;4950374;28;20110;-74
2023/08/10 10:00:22;;;;;;;6.30;2.22;;;25.60;38.90;;;;;;4946873;28;20476;-75
2023/08/10 10:02:48;;;;;;;5.88;1.90;;;25.60;40.70;;;;;;4951127;28;20038;-75
2023/08/10 10:05:21;;;;;;;4.88;2.38;;;25.60;41.20;;;;;;4951692;28;20039;-74
2023/08/10 10:07:48;;;;;;;6.65;2.08;;;25.60;41.90;;;;;;4953312;28;20235;-74
2023/08/10 10:10:16;;;;;;;4.75;2.20;;;25.60;41.70;;;;;;4956408;28;20055;-74
2023/08/10 10:12:43;;;;;;;6.85;2.50;;;25.50;41.70;;;;;;4952256;28;20476;-73
2023/08/10 10:15:10;;;;;;;5.65;2.47;;;25.60;42.80;;;;;;4970522;28;20381;-74
2023/08/10 10:17:36;;;;;;;6.05;2.28;;;25.60;42.50;;;;;;5004698;28;20349;-75
2023/08/10 10:20:04;;;;;;;5.45;2.05;;;25.60;43.20;;;;;;4964411;28;20034;-74
2023/08/10 10:22:31;;;;;;;4.10;1.80;;;25.60;42.90;;;;;;4955495;28;20027;-74
2023/08/10 10:24:59;;;;;;;5.90;2.10;;;25.70;43.20;;;;;;4958596;28;20479;-73
2023/08/10 10:27:38;;;;;;;5.10;2.13;;;25.80;42.10;;;;;;4966585;28;20113;-74
2023/08/10 10:30:14;;;;;;;5.53;2.15;;;25.70;44.20;;;;;;4966603;28;20114;-74
2023/08/10 10:32:45;;;;;;;6.35;2.00;;;26.00;44.60;;;;;;4969037;28;20035;-74
2023/08/10 10:35:14;;;;;;;3.95;1.95;;;26.30;43.60;;;;;;4966607;28;20039;-74
2023/08/10 10:37:40;;;;;;;4.75;1.80;;;26.20;43.50;;;;;;4969500;28;20031;-74
2023/08/10 10:40:16;;;;;;;4.60;2.00;;;26.40;43.50;;;;;;4967883;28;20146;-75
2023/08/10 10:43:01;;;;;;;3.92;1.88;;;26.60;44.40;;;;;;4965650;28;20047;-73
2023/08/10 10:45:27;;;;;;;7.20;2.42;;;26.50;44.00;;;;;;4960893;28;20045;-73
2023/08/10 10:47:54;;;;;;;7.45;2.30;;;26.60;42.80;;;;;;4965238;28;20042;-73
2023/08/10 10:50:25;;;;;;;6.03;1.70;;;26.70;43.50;;;;;;4968110;28;20078;-73
2023/08/10 10:52:52;;;;;;;5.63;2.30;;;26.80;43.20;;;;;;4966432;28;20027;-74
2023/08/10 10:55:19;;;;;;;5.22;1.92;;;26.80;42.60;;;;;;4963949;28;20042;-73
2023/08/10 10:57:49;;;;;;;4.55;2.28;;;26.80;43.40;;;;;;4963382;28;20035;-73
2023/08/10 11:00:15;;;;;;;5.70;2.05;;;26.80;42.90;;;;;;4965180;28;20433;-74
2023/08/10 11:02:41;;;;;;;4.07;1.88;;;27.00;43.20;;;;;;4964612;28;20525;-74
2023/08/10 11:05:17;;;;;;;7.97;2.20;;;27.00;42.00;;;;;;4965224;28;20043;-74
2023/08/10 11:07:45;;;;;;;6.20;2.00;;;26.90;42.60;;;;;;4963334;28;20466;-73
2023/08/10 11:10:12;;;;;;;5.63;2.40;;;27.00;42.10;;;;;;4964164;28;20047;-74
2023/08/10 11:12:42;;;;;;;7.25;2.30;;;27.00;43.10;;;;;;4963971;28;20113;-74
2023/08/10 11:15:12;;;;;;;10.00;2.50;;;27.10;43.80;;;;;;4967942;28;20039;-75
2023/08/10 11:17:42;;;;;;;6.43;2.33;;;27.40;42.30;;;;;;4971052;28;20034;-75
2023/08/10 11:20:14;;;;;;;7.50;2.50;;;27.30;43.70;;;;;;4953602;28;20026;-75
2023/08/10 11:22:51;;;;;;;7.03;2.30;;;27.30;42.40;;;;;;4945610;28;20067;-75
2023/08/10 11:25:24;;;;;;;6.50;2.10;;;27.20;40.90;;;;;;4970788;28;20023;-74
2023/08/10 11:27:51;;;;;;;;;;;27.10;42.80;;;;;;4985198;28;20023;-75
2023/08/10 11:30:19;;;;;;;7.47;2.05;;;27.00;43.50;;;;;;4982643;28;20004;-74
2023/08/10 11:32:47;;;;;;;5.10;2.20;;;27.00;43.80;;;;;;4966857;28;20085;-74
2023/08/10 11:35:14;;;;;;;5.70;2.40;;;27.10;43.40;;;;;;4961545;28;20464;-75
2023/08/10 11:37:44;;;;;;;5.20;2.25;;;27.10;42.10;;;;;;4960730;28;20070;-76
2023/08/10 11:40:13;;;;;;;6.50;2.30;;;26.90;42.70;;;;;;4964696;28;20042;-75
2023/08/10 11:43:14;;;;;;;4.63;1.83;;;27.00;43.30;;;;;;4966085;28;20055;-74
2023/08/10 11:45:41;;;;;;;5.70;2.25;;;27.30;44.20;;;;;;4958338;28;20041;-73
2023/08/10 11:48:11;;;;;;;4.90;2.42;;;27.40;41.20;;;;;;4965515;28;20518;-74
2023/08/10 11:50:43;;;;;;;8.00;2.13;;;27.50;41.60;;;;;;4962868;28;20047;-74
2023/08/10 11:53:15;;;;;;;3.67;2.03;;;27.60;43.10;;;;;;4965416;28;20521;-77
2023/08/10 11:55:49;;;;;;;3.80;2.03;;;27.50;41.60;;;;;;4964210;28;20074;-73
2023/08/10 11:58:16;;;;;;;8.45;2.58;;;27.60;42.30;;;;;;4961616;28;20496;-74
2023/08/10 12:00:49;;;;;;;3.90;2.08;;;27.50;41.70;;;;;;4965382;28;20182;-73
2023/08/10 12:03:25;;;;;;;5.18;2.10;;;27.60;42.40;;;;;;4962418;28;20046;-74
2023/08/10 12:05:56;;;;;;;5.30;2.30;;;27.80;41.10;;;;;;4967173;28;20042;-75
2023/08/10 12:08:51;;;;;;;4.32;2.03;;;28.00;42.00;;;;;;4980264;28;20070;-74
2023/08/10 12:11:19;;;;;;;5.75;2.00;;;28.00;41.50;;;;;;4955566;28;20075;-75
2023/08/10 12:13:47;;;;;;;4.20;2.10;;;28.20;41.20;;;;;;4962080;28;20027;-75
2023/08/10 12:16:15;;;;;;;4.28;1.85;;;28.50;41.50;;;;;;4966021;28;20027;-75
2023/08/10 12:18:41;;;;;;;5.15;2.03;;;28.30;40.10;;;;;;4967144;28;20026;-74
2023/08/10 12:21:07;;;;;;;4.63;2.22;;;28.10;41.10;;;;;;4967693;28;20027;-77
2023/08/10 12:23:32;;;;;;;6.10;2.75;;;28.10;40.20;;;;;;4965325;28;20126;-76
2023/08/10 12:25:58;;;;;;;5.57;2.10;;;28.10;41.40;;;;;;4966549;28;20042;-77
2023/08/10 12:28:25;;;;;;;4.60;2.08;;;28.10;40.20;;;;;;4971540;28;20040;-75
2023/08/10 12:30:51;;;;;;;10.18;2.70;;;28.20;41.90;;;;;;4958386;28;20050;-75
2023/08/10 12:33:19;;;;;;;4.63;2.33;;;28.00;40.50;;;;;;4965223;28;20039;-78
2023/08/10 12:35:45;;;;;;;7.53;2.08;;;28.10;39.90;;;;;;4964388;28;20045;-76
2023/08/10 12:38:10;;;;;;;4.57;2.17;;;28.10;40.90;;;;;;4965577;28;20034;-75
2023/08/10 12:40:37;;;;;;;6.07;2.20;;;28.30;39.40;;;;;;4966276;28;20038;-74
2023/08/10 12:43:04;;;;;;;4.28;2.05;;;28.50;39.60;;;;;;4963620;28;20047;-76
2023/08/10 12:45:29;;;;;;;10.00;2.47;;;28.30;40.80;;;;;;4981446;28;20031;-74